Time;durP1;ratioP1;P1;durP2;ratioP2;P2;SDS_P1;SDS_P2;PMS_P1;PMS_P2;Temp;Humidity;BMP_temperature;BMP_pressure;BME280_temperature;BME280_humidity;BME280_pressure;Samples;Min_cycle;Max_cycle;Signal;HPM_P1;HPM_P2
2024/01/04 00:01:15;;;;;;;1.77;0.68;;;22.80;37.00;;;;;;4949640;28;20055;-59
2024/01/04 00:03:42;;;;;;;1.20;0.52;;;22.80;37.00;;;;;;4945131;28;20543;-59
2024/01/04 00:06:09;;;;;;;1.98;0.60;;;22.80;37.00;;;;;;4944315;28;20055;-58
2024/01/04 00:08:36;;;;;;;0.88;0.43;;;22.80;37.00;;;;;;4945613;28;20062;-59
2024/01/04 00:11:06;;;;;;;2.13;0.60;;;22.90;37.00;;;;;;4946643;28;20059;-58
2024/01/04 00:13:34;;;;;;;1.00;0.50;;;22.80;37.00;;;;;;4948334;28;20055;-59
2024/01/04 00:16:01;;;;;;;2.20;0.50;;;22.80;37.00;;;;;;4946469;28;20507;-58
2024/01/04 00:18:30;;;;;;;1.33;0.52;;;22.80;37.00;;;;;;4945544;28;20428;-59
2024/01/04 00:20:58;;;;;;;3.03;0.98;;;22.80;37.00;;;;;;4947151;28;20048;-59
2024/01/04 00:23:25;;;;;;;1.52;0.40;;;22.80;37.00;;;;;;4951643;28;20055;-59
2024/01/04 00:25:52;;;;;;;2.45;0.40;;;22.80;36.90;;;;;;4950523;28;20047;-59
2024/01/04 00:28:19;;;;;;;1.05;0.70;;;22.80;36.90;;;;;;4951648;28;20054;-59
2024/01/04 00:30:47;;;;;;;1.75;0.65;;;22.80;37.00;;;;;;4949988;29;20411;-59
2024/01/04 00:33:14;;;;;;;2.33;0.47;;;22.80;36.90;;;;;;4948198;28;20569;-60
2024/01/04 00:35:42;;;;;;;2.03;0.63;;;22.80;36.90;;;;;;4950347;28;20054;-59
2024/01/04 00:38:10;;;;;;;1.02;0.55;;;22.80;36.90;;;;;;4949073;28;20062;-59
2024/01/04 00:40:39;;;;;;;0.52;0.30;;;22.80;36.90;;;;;;4951923;28;20489;-59
2024/01/04 00:43:06;;;;;;;1.35;0.30;;;22.70;36.80;;;;;;4951371;28;20047;-60
2024/01/04 00:45:33;;;;;;;0.70;0.30;;;22.70;36.90;;;;;;4947712;28;20059;-59
2024/01/04 00:48:02;;;;;;;0.80;0.30;;;22.70;36.90;;;;;;4949928;28;20054;-62
2024/01/04 00:50:29;;;;;;;1.27;0.50;;;22.70;36.90;;;;;;4950298;28;20059;-61
2024/01/04 00:52:57;;;;;;;1.50;0.40;;;22.70;36.90;;;;;;4950723;28;20059;-62
2024/01/04 00:55:24;;;;;;;2.53;0.50;;;22.70;36.90;;;;;;4951273;28;20047;-61
2024/01/04 00:57:52;;;;;;;0.52;0.30;;;22.60;36.90;;;;;;4951836;28;20074;-61
2024/01/04 01:00:19;;;;;;;1.60;0.50;;;22.60;36.90;;;;;;4950464;28;20051;-61
2024/01/04 01:02:47;;;;;;;1.40;0.30;;;22.60;36.90;;;;;;4950076;28;20055;-61
2024/01/04 01:05:14;;;;;;;0.85;0.28;;;22.60;37.40;;;;;;4948198;28;20407;-61
2024/01/04 01:07:41;;;;;;;0.82;0.30;;;22.60;36.90;;;;;;4951210;28;20062;-61
2024/01/04 01:10:10;;;;;;;0.63;0.30;;;22.60;36.90;;;;;;4950199;28;20058;-61
2024/01/04 01:12:37;;;;;;;0.40;0.30;;;22.50;36.80;;;;;;4950842;28;20055;-61
2024/01/04 01:15:05;;;;;;;0.68;0.28;;;22.50;36.80;;;;;;4947972;28;20495;-61
2024/01/04 01:17:32;;;;;;;1.42;0.30;;;22.50;36.90;;;;;;4949074;28;20058;-61
2024/01/04 01:20:00;;;;;;;0.57;0.20;;;22.50;36.80;;;;;;4948537;28;20062;-62
2024/01/04 01:22:27;;;;;;;0.98;0.38;;;22.50;36.90;;;;;;4951340;28;20051;-62
2024/01/04 01:24:54;;;;;;;0.80;0.30;;;22.50;36.90;;;;;;4948915;28;20653;-62
2024/01/04 01:27:23;;;;;;;0.68;0.45;;;22.50;37.00;;;;;;4949458;28;20073;-61
2024/01/04 01:29:50;;;;;;;0.47;0.20;;;22.50;37.00;;;;;;4949450;28;20063;-61
2024/01/04 01:32:17;;;;;;;0.47;0.20;;;22.50;37.10;;;;;;4949573;28;20066;-61
2024/01/04 01:34:45;;;;;;;0.30;0.30;;;22.50;37.10;;;;;;4947878;28;20047;-61
2024/01/04 01:37:12;;;;;;;0.20;0.20;;;22.60;37.10;;;;;;4949641;28;20055;-61
2024/01/04 01:39:40;;;;;;;0.73;0.20;;;22.60;37.10;;;;;;4957995;28;20063;-61
2024/01/04 01:42:07;;;;;;;0.50;0.20;;;22.60;37.10;;;;;;4956604;28;20058;-61
2024/01/04 01:44:36;;;;;;;0.63;0.20;;;22.70;37.10;;;;;;4954228;28;20055;-61
2024/01/04 01:47:03;;;;;;;0.40;0.20;;;22.60;37.00;;;;;;4953290;28;20443;-61
2024/01/04 01:49:30;;;;;;;0.47;0.30;;;22.70;37.10;;;;;;4949289;28;20078;-61
2024/01/04 01:51:58;;;;;;;0.65;0.20;;;22.70;37.60;;;;;;4951413;28;20055;-61
2024/01/04 01:54:26;;;;;;;0.40;0.20;;;22.70;37.00;;;;;;4951387;28;20047;-62
2024/01/04 01:56:53;;;;;;;0.68;0.20;;;22.70;37.00;;;;;;4952158;28;20074;-61
2024/01/04 01:59:21;;;;;;;0.50;0.30;;;22.70;37.00;;;;;;4954775;28;20059;-60
2024/01/04 02:01:50;;;;;;;1.10;0.30;;;22.70;37.00;;;;;;4952760;28;20051;-59
2024/01/04 02:04:17;;;;;;;1.50;0.20;;;22.80;37.00;;;;;;4954267;28;20055;-59
2024/01/04 02:06:44;;;;;;;0.80;0.40;;;22.70;37.00;;;;;;4956104;28;20528;-61
2024/01/04 02:09:11;;;;;;;1.30;0.30;;;22.70;37.00;;;;;;4953213;28;20058;-60
2024/01/04 02:11:41;;;;;;;1.05;0.25;;;22.70;37.00;;;;;;4953365;28;20411;-59
2024/01/04 02:14:08;;;;;;;0.28;0.20;;;22.70;37.00;;;;;;4950074;28;20047;-59
2024/01/04 02:16:35;;;;;;;1.00;0.40;;;22.70;37.00;;;;;;4952101;28;20055;-59
2024/01/04 02:19:08;;;;;;;1.60;0.52;;;22.70;37.50;;;;;;4952472;28;20062;-58
2024/01/04 02:21:37;;;;;;;0.50;0.20;;;22.70;36.90;;;;;;4948976;28;20051;-62
2024/01/04 02:24:06;;;;;;;1.83;0.47;;;22.70;36.90;;;;;;4953449;28;20047;-61
2024/01/04 02:26:34;;;;;;;0.82;0.30;;;22.60;36.90;;;;;;4952145;28;20502;-59
2024/01/04 02:29:01;;;;;;;1.17;0.40;;;22.70;36.90;;;;;;4954713;28;20055;-59
2024/01/04 02:31:28;;;;;;;2.10;0.40;;;22.60;36.90;;;;;;4950918;28;20054;-59
2024/01/04 02:33:55;;;;;;;1.20;0.30;;;22.60;36.90;;;;;;4949799;28;20055;-61
2024/01/04 02:36:23;;;;;;;2.03;0.60;;;22.70;37.50;;;;;;4951148;28;20494;-60
2024/01/04 02:38:50;;;;;;;0.93;0.38;;;22.60;37.40;;;;;;4950200;28;20534;-61
2024/01/04 02:41:19;;;;;;;3.63;0.75;;;22.60;36.90;;;;;;4948239;28;20062;-59
2024/01/04 02:43:46;;;;;;;1.13;0.50;;;22.50;36.90;;;;;;4949750;28;20059;-59
2024/01/04 02:46:13;;;;;;;3.25;0.57;;;22.50;36.90;;;;;;4946805;28;20063;-59
2024/01/04 02:48:40;;;;;;;1.35;0.40;;;22.50;36.90;;;;;;4946463;28;20055;-59
2024/01/04 02:51:08;;;;;;;1.20;0.40;;;22.50;36.90;;;;;;4946735;28;20050;-59
2024/01/04 02:53:35;;;;;;;0.73;0.40;;;22.50;36.90;;;;;;4948596;28;20062;-59
2024/01/04 02:56:04;;;;;;;3.40;0.70;;;22.50;36.90;;;;;;4949803;28;20043;-58
2024/01/04 02:58:33;;;;;;;1.75;0.47;;;22.50;37.00;;;;;;4947259;28;20080;-59
2024/01/04 03:01:01;;;;;;;2.58;0.63;;;22.50;37.00;;;;;;4947978;28;20051;-59
2024/01/04 03:03:28;;;;;;;1.88;0.47;;;22.50;37.50;;;;;;4945827;28;20062;-60
2024/01/04 03:05:55;;;;;;;0.85;0.45;;;22.40;37.00;;;;;;4947127;28;20055;-60
2024/01/04 03:08:22;;;;;;;1.23;0.40;;;22.40;37.00;;;;;;4947399;28;20392;-66
2024/01/04 03:10:49;;;;;;;1.50;0.40;;;22.40;37.10;;;;;;4948713;28;20053;-66
2024/01/04 03:13:17;;;;;;;1.00;0.25;;;22.40;37.10;;;;;;4947086;28;20412;-61
2024/01/04 03:15:45;;;;;;;1.23;0.50;;;22.50;37.20;;;;;;4947510;28;20066;-66
2024/01/04 03:18:13;;;;;;;1.77;0.65;;;22.50;37.20;;;;;;4947831;28;20065;-64
2024/01/04 03:24:02;;;;;;;1.02;0.30;;;22.60;37.20;;;;;;4953293;28;20030;-66
2024/01/04 03:26:29;;;;;;;0.70;0.35;;;22.70;37.10;;;;;;4947899;28;20055;-66
2024/01/04 03:28:56;;;;;;;0.75;0.47;;;22.70;37.10;;;;;;4948325;28;20051;-61
2024/01/04 03:31:25;;;;;;;1.00;0.60;;;22.60;37.00;;;;;;4948259;28;20415;-65
2024/01/04 03:33:52;;;;;;;1.40;0.47;;;22.70;37.10;;;;;;4946292;28;20047;-66
2024/01/04 03:36:19;;;;;;;1.70;0.30;;;22.70;37.10;;;;;;4947018;28;20416;-66
2024/01/04 03:38:46;;;;;;;1.80;0.47;;;22.70;37.10;;;;;;4934554;28;20051;-66
2024/01/04 03:41:13;;;;;;;0.90;0.50;;;22.70;37.10;;;;;;4930218;29;20055;-66
2024/01/04 03:43:41;;;;;;;1.73;0.75;;;22.70;37.10;;;;;;4930049;29;20055;-66
2024/01/04 03:46:10;;;;;;;0.50;0.28;;;22.70;37.10;;;;;;4929022;29;20055;-65
2024/01/04 03:48:38;;;;;;;0.70;0.40;;;22.70;37.00;;;;;;4926710;29;20062;-66
2024/01/04 03:51:05;;;;;;;1.15;0.38;;;22.70;37.10;;;;;;4927301;29;20052;-66
2024/01/04 03:53:32;;;;;;;1.70;0.50;;;22.70;37.00;;;;;;4932795;29;20044;-66
2024/01/04 03:56:00;;;;;;;1.35;0.55;;;22.70;37.00;;;;;;4930719;29;20059;-66
2024/01/04 03:58:27;;;;;;;2.05;0.30;;;22.70;37.00;;;;;;4930092;29;20055;-66
2024/01/04 04:00:54;;;;;;;1.88;0.50;;;22.70;37.00;;;;;;4931476;29;20054;-66
2024/01/04 04:03:22;;;;;;;2.55;0.60;;;22.60;37.00;;;;;;4935367;29;20055;-66
2024/01/04 04:05:50;;;;;;;2.60;0.75;;;22.60;37.00;;;;;;4932538;29;20062;-66
2024/01/04 04:08:17;;;;;;;1.45;0.50;;;22.70;37.00;;;;;;4932603;29;20060;-62
2024/01/04 04:10:45;;;;;;;2.42;0.80;;;22.60;37.00;;;;;;4932861;29;20063;-65
2024/01/04 04:13:12;;;;;;;1.63;0.60;;;22.60;37.00;;;;;;4930313;29;20054;-64
2024/01/04 04:15:39;;;;;;;2.03;0.65;;;22.60;37.00;;;;;;4933640;29;20473;-66
2024/01/04 04:18:06;;;;;;;1.58;0.63;;;22.60;37.00;;;;;;4932573;29;20047;-62
2024/01/04 04:20:33;;;;;;;1.23;0.50;;;22.60;37.00;;;;;;4934002;29;20050;-60
2024/01/04 04:23:02;;;;;;;1.10;0.43;;;22.50;36.90;;;;;;4933312;29;20067;-59
2024/01/04 04:25:29;;;;;;;2.63;0.80;;;22.50;36.90;;;;;;4933598;29;20052;-62
2024/01/04 04:27:56;;;;;;;3.33;0.80;;;22.50;37.00;;;;;;4933755;29;20062;-59
2024/01/04 04:30:23;;;;;;;6.95;0.90;;;22.50;36.90;;;;;;4930515;29;20427;-62
2024/01/04 04:32:51;;;;;;;14.05;1.52;;;22.50;36.80;;;;;;4933058;29;20056;-59
2024/01/04 04:35:18;;;;;;;6.03;1.05;;;22.50;36.90;;;;;;4930362;29;20044;-59
2024/01/04 04:37:45;;;;;;;3.65;0.90;;;22.40;36.90;;;;;;4935480;28;20074;-58
2024/01/04 04:40:13;;;;;;;1.77;0.63;;;22.40;36.90;;;;;;4955173;28;20518;-58
2024/01/04 04:42:44;;;;;;;1.63;0.68;;;22.40;37.00;;;;;;4954682;28;20063;-58
2024/01/04 04:45:11;;;;;;;6.93;0.80;;;22.40;37.00;;;;;;4952107;28;20051;-57
2024/01/04 04:47:39;;;;;;;2.08;0.50;;;22.40;37.10;;;;;;4965564;28;20419;-57
2024/01/04 04:50:08;;;;;;;5.93;0.75;;;22.40;37.20;;;;;;4953732;28;20062;-58
2024/01/04 04:52:35;;;;;;;2.33;0.60;;;22.40;37.20;;;;;;4959845;28;20058;-58
2024/01/04 04:55:03;;;;;;;1.75;0.50;;;22.40;37.20;;;;;;4959379;28;20101;-57
2024/01/04 04:57:31;;;;;;;1.70;0.63;;;22.50;37.30;;;;;;4953659;28;20060;-57
2024/01/04 04:59:58;;;;;;;4.60;0.63;;;22.50;37.30;;;;;;4954300;28;20055;-58
2024/01/04 05:02:25;;;;;;;1.45;0.70;;;22.50;37.30;;;;;;4955855;28;20051;-60
2024/01/04 05:04:52;;;;;;;1.35;0.57;;;22.50;37.30;;;;;;4957158;28;20055;-58
2024/01/04 05:07:19;;;;;;;1.40;0.70;;;22.60;37.30;;;;;;4957600;28;20062;-58
2024/01/04 05:09:47;;;;;;;1.83;0.55;;;22.60;37.30;;;;;;4959644;28;20058;-58
2024/01/04 05:12:14;;;;;;;2.05;0.70;;;22.60;37.30;;;;;;4958403;28;20062;-58
2024/01/04 05:14:42;;;;;;;0.50;0.40;;;22.60;37.20;;;;;;4948748;29;20535;-59
2024/01/04 05:17:09;;;;;;;3.33;0.70;;;22.70;37.20;;;;;;4955350;28;20051;-57
2024/01/04 05:19:36;;;;;;;2.85;0.38;;;22.70;37.30;;;;;;4956585;28;20078;-57
2024/01/04 05:22:05;;;;;;;5.57;0.70;;;22.70;37.30;;;;;;4953176;29;20067;-58
2024/01/04 05:24:32;;;;;;;3.75;0.75;;;22.80;37.30;;;;;;4952525;28;20497;-58
2024/01/04 05:26:59;;;;;;;4.18;0.30;;;22.80;37.20;;;;;;4955584;28;20047;-58
2024/01/04 05:29:27;;;;;;;2.75;0.50;;;22.90;37.20;;;;;;4957999;28;20051;-60
2024/01/04 05:31:56;;;;;;;3.92;0.55;;;22.90;37.20;;;;;;4949516;28;20059;-60
2024/01/04 05:34:23;;;;;;;48.05;26.60;;;22.90;37.10;;;;;;4950923;28;20405;-58
2024/01/04 05:36:50;;;;;;;49.45;27.02;;;23.00;37.00;;;;;;4956530;28;20050;-59
2024/01/04 05:39:17;;;;;;;30.70;17.60;;;23.00;36.90;;;;;;4953581;28;20055;-63
2024/01/04 05:41:44;;;;;;;16.50;9.60;;;23.00;36.80;;;;;;4945723;28;20054;-61
2024/01/04 05:44:11;;;;;;;11.63;7.28;;;23.00;36.80;;;;;;4963907;28;20059;-63
2024/01/04 05:46:41;;;;;;;13.82;7.30;;;23.00;36.80;;;;;;4959282;28;20058;-59
2024/01/04 05:49:10;;;;;;;9.88;5.93;;;23.00;36.80;;;;;;4949868;28;20055;-59
2024/01/04 05:51:38;;;;;;;9.60;4.90;;;23.00;36.80;;;;;;4950531;28;20060;-60
2024/01/04 05:54:05;;;;;;;10.02;3.97;;;23.10;36.80;;;;;;4952620;28;20051;-61
2024/01/04 05:56:33;;;;;;;8.70;4.25;;;23.00;36.80;;;;;;4953869;29;20054;-59
2024/01/04 05:59:00;;;;;;;7.78;3.35;;;23.00;36.80;;;;;;4952586;28;20067;-62
2024/01/04 06:01:27;;;;;;;5.38;2.97;;;23.00;36.80;;;;;;4952542;28;20063;-61
2024/01/04 06:03:54;;;;;;;4.68;2.85;;;23.00;36.70;;;;;;4950852;28;20500;-61
2024/01/04 06:06:22;;;;;;;7.53;4.53;;;23.00;36.70;;;;;;4951683;28;20054;-61
2024/01/04 06:08:50;;;;;;;15.25;4.75;;;23.00;36.80;;;;;;4952843;28;20051;-61
2024/01/04 06:11:19;;;;;;;18.65;7.88;;;23.00;36.70;;;;;;4953222;29;20059;-57
2024/01/04 06:13:46;;;;;;;9.35;5.43;;;23.00;36.70;;;;;;4951487;28;20055;-58
2024/01/04 06:16:13;;;;;;;7.22;4.15;;;23.00;36.70;;;;;;4951293;28;20066;-57
2024/01/04 06:18:40;;;;;;;6.70;3.15;;;22.90;36.70;;;;;;4951392;28;20059;-57
2024/01/04 06:21:07;;;;;;;7.35;3.55;;;22.90;36.70;;;;;;4949692;28;20064;-58
2024/01/04 06:23:36;;;;;;;5.45;3.08;;;22.90;36.80;;;;;;4953333;29;20055;-57
2024/01/04 06:26:04;;;;;;;5.32;2.50;;;22.90;36.80;;;;;;4950422;28;20047;-60
2024/01/04 06:28:31;;;;;;;7.28;2.88;;;22.90;36.80;;;;;;4951509;28;20069;-59
2024/01/04 06:30:58;;;;;;;5.95;2.80;;;22.80;36.80;;;;;;4951408;28;20054;-59
2024/01/04 06:33:26;;;;;;;5.75;2.33;;;22.80;36.80;;;;;;4947205;28;20051;-57
2024/01/04 06:35:53;;;;;;;3.47;1.98;;;22.80;36.80;;;;;;4948808;28;20058;-57
2024/01/04 06:38:20;;;;;;;9.65;2.65;;;22.80;36.80;;;;;;4949096;29;20051;-62
2024/01/04 06:40:50;;;;;;;4.63;2.22;;;22.80;36.90;;;;;;4954051;28;20055;-57
2024/01/04 06:43:17;;;;;;;11.68;2.60;;;22.80;36.90;;;;;;4950724;28;20557;-58
2024/01/04 06:45:44;;;;;;;6.03;2.30;;;22.70;36.90;;;;;;4946903;28;20461;-57
2024/01/04 06:48:11;;;;;;;4.45;1.63;;;22.70;37.40;;;;;;4950408;28;20423;-57
2024/01/04 06:50:38;;;;;;;5.93;1.73;;;22.70;36.90;;;;;;4943474;29;20487;-57
2024/01/04 06:53:06;;;;;;;10.35;2.00;;;22.70;36.90;;;;;;4950724;28;20055;-57
2024/01/04 06:55:33;;;;;;;7.45;2.30;;;22.70;36.90;;;;;;4954913;28;20069;-57
2024/01/04 06:58:03;;;;;;;15.20;1.95;;;22.70;37.00;;;;;;4951617;28;20058;-56
2024/01/04 07:00:31;;;;;;;4.22;1.55;;;22.70;37.10;;;;;;4945912;28;20106;-56
2024/01/04 07:02:58;;;;;;;3.38;1.33;;;22.70;37.10;;;;;;4950713;28;20062;-56
2024/01/04 07:05:25;;;;;;;2.63;0.90;;;22.70;37.10;;;;;;4950818;29;20059;-54
2024/01/04 07:07:52;;;;;;;5.25;1.25;;;22.70;37.10;;;;;;4952003;29;20062;-57
2024/01/04 07:10:20;;;;;;;7.55;1.77;;;22.60;37.10;;;;;;4954333;28;20062;-58
2024/01/04 07:12:50;;;;;;;3.85;1.45;;;22.60;37.00;;;;;;4949930;29;20055;-56
2024/01/04 07:15:20;;;;;;;7.53;2.45;;;22.60;37.00;;;;;;4951744;28;20055;-57
2024/01/04 07:17:47;;;;;;;2.42;1.77;;;22.60;37.00;;;;;;4947391;29;20052;-57
2024/01/04 07:20:15;;;;;;;5.53;1.55;;;22.60;37.10;;;;;;4948726;28;20074;-57
2024/01/04 07:22:44;;;;;;;4.88;1.92;;;22.60;37.10;;;;;;4949707;28;20051;-57
2024/01/04 07:25:12;;;;;;;2.35;1.27;;;22.60;37.10;;;;;;4949206;28;20051;-57
2024/01/04 07:27:39;;;;;;;4.85;1.38;;;22.60;37.10;;;;;;4948019;28;20055;-55
2024/01/04 07:30:09;;;;;;;5.53;1.48;;;22.60;37.10;;;;;;4949289;28;20057;-56
2024/01/04 07:32:37;;;;;;;2.42;1.20;;;22.60;37.20;;;;;;4944107;28;20415;-56
2024/01/04 07:35:06;;;;;;;3.03;1.08;;;22.60;37.20;;;;;;4952454;28;20059;-56
2024/01/04 07:37:33;;;;;;;1.60;0.98;;;22.60;37.20;;;;;;4941660;29;20051;-56
2024/01/04 07:40:00;;;;;;;3.42;1.27;;;22.60;37.20;;;;;;4941788;29;20051;-56
2024/01/04 07:42:27;;;;;;;4.30;1.60;;;22.70;37.30;;;;;;4949327;28;20065;-55
2024/01/04 07:44:55;;;;;;;3.45;1.30;;;22.70;37.20;;;;;;4950921;28;20055;-56
2024/01/04 07:47:26;;;;;;;3.65;1.10;;;22.80;37.30;;;;;;4931380;28;20123;-55
2024/01/04 07:49:55;;;;;;;5.05;1.02;;;22.80;37.20;;;;;;4946522;28;20456;-57
2024/01/04 07:52:25;;;;;;;1.75;1.00;;;22.90;37.20;;;;;;4935051;29;20062;-56
2024/01/04 07:54:52;;;;;;;4.20;0.98;;;22.90;37.20;;;;;;4936664;29;20515;-55
2024/01/04 07:57:23;;;;;;;5.32;1.10;;;23.00;37.20;;;;;;4944559;28;20355;-57
2024/01/04 07:59:53;;;;;;;7.63;1.38;;;23.00;37.20;;;;;;4945854;29;20123;-56
2024/01/04 08:02:20;;;;;;;1.73;1.00;;;23.10;37.20;;;;;;4946598;28;20062;-57
2024/01/04 08:04:47;;;;;;;6.95;1.08;;;23.10;37.10;;;;;;4944317;28;20059;-56
2024/01/04 08:07:16;;;;;;;4.68;1.10;;;23.10;37.00;;;;;;4946071;28;20067;-54
2024/01/04 08:09:43;;;;;;;1.95;0.88;;;23.20;37.00;;;;;;4936870;29;20062;-55
2024/01/04 08:12:12;;;;;;;1.50;0.95;;;23.20;37.00;;;;;;4944082;28;20405;-54
2024/01/04 08:14:39;;;;;;;3.53;0.90;;;23.30;37.00;;;;;;4948109;29;20063;-52
2024/01/04 08:17:07;;;;;;;2.25;1.02;;;23.30;36.90;;;;;;4944826;28;20054;-55
2024/01/04 08:19:34;;;;;;;0.75;0.70;;;23.30;36.90;;;;;;4938022;28;20137;-55
2024/01/04 08:22:01;;;;;;;1.52;0.80;;;23.30;36.80;;;;;;4945870;28;20056;-55
2024/01/04 08:24:30;;;;;;;0.77;0.70;;;23.30;36.80;;;;;;4946014;28;20059;-54
2024/01/04 08:26:58;;;;;;;1.95;0.90;;;23.30;36.80;;;;;;4940388;29;20043;-55
2024/01/04 08:29:25;;;;;;;3.28;0.70;;;23.40;36.80;;;;;;4944790;28;20416;-56
2024/01/04 08:31:53;;;;;;;4.80;0.77;;;23.40;36.80;;;;;;4946284;28;20047;-57
2024/01/04 08:34:21;;;;;;;2.05;0.98;;;23.30;36.80;;;;;;4946365;28;20059;-57
2024/01/04 08:36:48;;;;;;;2.05;1.00;;;23.30;36.80;;;;;;4936559;28;20055;-56
2024/01/04 08:39:15;;;;;;;1.67;1.00;;;23.30;36.70;;;;;;4938815;28;20074;-57
2024/01/04 08:41:43;;;;;;;1.58;0.80;;;23.30;36.70;;;;;;4938111;28;20047;-50
2024/01/04 08:44:11;;;;;;;1.60;0.90;;;23.30;36.70;;;;;;4945107;28;20062;-56
2024/01/04 08:46:38;;;;;;;3.03;0.80;;;23.30;36.70;;;;;;4950393;28;20062;-55
2024/01/04 08:49:07;;;;;;;2.95;0.90;;;23.30;36.60;;;;;;4949817;28;20051;-54
2024/01/04 08:51:35;;;;;;;0.98;0.80;;;23.30;36.60;;;;;;4948689;28;20062;-53
2024/01/04 08:54:02;;;;;;;1.90;0.75;;;23.30;36.60;;;;;;4948302;28;20056;-54
2024/01/04 08:56:29;;;;;;;3.60;1.13;;;23.20;36.60;;;;;;4948456;28;20059;-54
2024/01/04 08:58:57;;;;;;;2.60;0.80;;;23.20;36.60;;;;;;4930357;29;20511;-56
2024/01/04 09:01:25;;;;;;;1.58;0.80;;;23.20;36.60;;;;;;4943661;28;20078;-56
2024/01/04 09:03:52;;;;;;;1.30;0.60;;;23.20;36.60;;;;;;4947034;28;20062;-58
2024/01/04 09:06:19;;;;;;;1.13;0.68;;;23.20;36.60;;;;;;4948663;28;20051;-56
2024/01/04 09:08:47;;;;;;;0.93;0.70;;;23.10;36.60;;;;;;4950292;28;20059;-58
2024/01/04 09:11:14;;;;;;;0.73;0.60;;;23.10;36.60;;;;;;4948534;28;20054;-58
2024/01/04 09:13:44;;;;;;;1.23;0.60;;;23.10;36.60;;;;;;4948491;28;20054;-57
2024/01/04 09:16:12;;;;;;;1.83;0.70;;;23.10;36.60;;;;;;4948131;28;20051;-57
2024/01/04 09:18:40;;;;;;;1.88;0.60;;;23.00;36.60;;;;;;4947173;28;20416;-58
2024/01/04 09:21:08;;;;;;;1.52;0.60;;;23.00;36.60;;;;;;4948063;29;20070;-57
2024/01/04 09:23:35;;;;;;;1.42;0.52;;;23.00;36.60;;;;;;4948532;28;20429;-57
2024/01/04 09:26:08;;;;;;;1.23;0.60;;;23.00;36.60;;;;;;4948992;28;20051;-56
2024/01/04 09:28:36;;;;;;;0.60;0.40;;;23.00;36.60;;;;;;4947521;28;20055;-57
2024/01/04 09:31:03;;;;;;;1.67;0.75;;;22.90;36.60;;;;;;4949064;28;20055;-57
2024/01/04 09:33:32;;;;;;;1.65;0.85;;;22.90;36.60;;;;;;4940440;28;20063;-57
2024/01/04 09:35:59;;;;;;;1.35;0.40;;;22.90;36.60;;;;;;4948405;29;20055;-57
2024/01/04 09:38:27;;;;;;;0.85;0.40;;;22.90;36.70;;;;;;4953096;28;20519;-56
2024/01/04 09:40:57;;;;;;;2.58;0.70;;;22.90;36.70;;;;;;4948064;28;20060;-57
2024/01/04 09:43:28;;;;;;;1.30;0.65;;;22.80;36.70;;;;;;4950021;28;20416;-57
2024/01/04 09:45:57;;;;;;;1.05;0.50;;;22.80;36.70;;;;;;4945793;29;20059;-58
2024/01/04 09:48:25;;;;;;;1.17;0.40;;;22.80;36.80;;;;;;4948891;28;20047;-60
2024/01/04 09:50:54;;;;;;;1.00;0.40;;;22.80;36.90;;;;;;4948733;29;20504;-59
2024/01/04 09:53:21;;;;;;;1.17;0.45;;;22.90;37.00;;;;;;4950039;28;20062;-59
2024/01/04 09:55:49;;;;;;;1.60;0.68;;;22.90;37.00;;;;;;4947214;28;20062;-57
2024/01/04 09:58:16;;;;;;;1.00;0.50;;;22.90;37.00;;;;;;4945051;28;20058;-59
2024/01/04 10:00:44;;;;;;;1.77;0.40;;;23.00;37.00;;;;;;4949426;28;20060;-59
2024/01/04 10:03:12;;;;;;;2.08;0.40;;;23.00;36.90;;;;;;4947641;29;20475;-60
2024/01/04 10:05:42;;;;;;;0.55;0.40;;;23.10;36.90;;;;;;4946135;28;20419;-58
2024/01/04 10:08:23;;;;;;;0.52;0.40;;;23.10;36.90;;;;;;4948301;29;20534;-59
2024/01/04 10:10:53;;;;;;;0.50;0.38;;;23.10;36.80;;;;;;4948020;28;20062;-58
2024/01/04 10:13:20;;;;;;;0.82;0.35;;;23.20;36.90;;;;;;4948624;28;20061;-55
2024/01/04 10:15:48;;;;;;;0.77;0.50;;;23.20;36.80;;;;;;4947605;28;20479;-54
2024/01/04 10:18:17;;;;;;;0.93;0.50;;;23.20;36.80;;;;;;4949059;28;20055;-57
2024/01/04 10:20:59;;;;;;;0.60;0.40;;;23.20;36.80;;;;;;4947973;28;20058;-54
2024/01/04 10:23:28;;;;;;;0.65;0.20;;;23.20;36.70;;;;;;4946908;28;20055;-56
2024/01/04 10:26:09;;;;;;;0.65;0.30;;;23.20;36.70;;;;;;4947377;28;20075;-53
2024/01/04 10:28:38;;;;;;;0.95;0.40;;;23.20;36.70;;;;;;4947767;28;20412;-54
2024/01/04 10:31:07;;;;;;;0.77;0.47;;;23.20;36.60;;;;;;4947100;28;20051;-56
2024/01/04 10:33:35;;;;;;;1.70;0.40;;;23.20;36.70;;;;;;4935369;29;20066;-55
2024/01/04 10:36:09;;;;;;;0.60;0.30;;;23.20;36.70;;;;;;4944703;29;20408;-56
2024/01/04 10:38:37;;;;;;;;;;;23.20;36.70;;;;;;4947154;28;20055;-58
2024/01/04 10:41:05;;;;;;;0.40;0.30;;;23.20;36.70;;;;;;4948513;28;19922;-57
2024/01/04 10:43:32;;;;;;;1.10;0.40;;;23.20;36.50;;;;;;4942053;28;20424;-58
2024/01/04 10:46:05;;;;;;;2.88;0.45;;;23.20;36.50;;;;;;4942230;28;20390;-58
2024/01/04 10:48:33;;;;;;;1.05;0.32;;;23.20;36.60;;;;;;4946162;28;20074;-58
2024/01/04 10:51:04;;;;;;;1.33;0.40;;;23.10;36.50;;;;;;4946735;28;20062;-56
2024/01/04 10:53:34;;;;;;;1.58;0.57;;;23.10;36.60;;;;;;4947124;29;20091;-57
2024/01/04 10:56:04;;;;;;;0.30;0.30;;;23.10;36.60;;;;;;4948514;28;20063;-57
2024/01/04 10:58:33;;;;;;;0.40;0.20;;;23.10;36.60;;;;;;4943840;29;20051;-58
2024/01/04 11:01:01;;;;;;;0.82;0.45;;;23.10;36.60;;;;;;4946866;28;20051;-59
2024/01/04 11:03:31;;;;;;;0.52;0.38;;;23.00;36.50;;;;;;4947112;29;20055;-57
2024/01/04 11:05:59;;;;;;;2.53;0.30;;;23.00;36.50;;;;;;4946452;28;20055;-58
2024/01/04 11:08:27;;;;;;;1.65;0.30;;;23.00;36.60;;;;;;4944054;28;20051;-58
2024/01/04 11:10:55;;;;;;;0.25;0.20;;;23.00;36.60;;;;;;4948057;28;20051;-57
2024/01/04 11:13:24;;;;;;;1.20;0.40;;;23.00;36.70;;;;;;4946859;28;20415;-57
2024/01/04 11:15:55;;;;;;;0.88;0.40;;;23.00;36.60;;;;;;4936103;29;20489;-57
2024/01/04 11:18:41;;;;;;;1.58;0.45;;;22.90;36.60;;;;;;4946820;29;20051;-54
2024/01/04 11:21:27;;;;;;;7.30;0.70;;;22.90;36.60;;;;;;4942451;29;20059;-58
2024/01/04 11:24:05;;;;;;;0.80;0.30;;;22.90;36.60;;;;;;4935352;28;20051;-57
2024/01/04 11:26:47;;;;;;;1.15;0.50;;;22.90;36.70;;;;;;4944467;28;20055;-58
2024/01/04 11:29:16;;;;;;;0.82;0.30;;;22.90;36.70;;;;;;4941988;28;20496;-57
2024/01/04 11:31:44;;;;;;;0.75;0.25;;;22.90;36.80;;;;;;4944484;28;20055;-57
2024/01/04 11:34:13;;;;;;;0.50;0.30;;;22.90;36.80;;;;;;4934804;29;20500;-57
2024/01/04 11:36:41;;;;;;;1.67;0.50;;;22.90;36.90;;;;;;4942108;28;20070;-59
2024/01/04 11:39:08;;;;;;;0.70;0.40;;;22.90;36.90;;;;;;4945484;28;20412;-58
2024/01/04 11:41:36;;;;;;;1.20;0.57;;;23.00;36.90;;;;;;4943891;28;20077;-56
2024/01/04 11:44:06;;;;;;;0.93;0.52;;;23.00;36.90;;;;;;4942771;28;20640;-57
2024/01/04 11:46:35;;;;;;;1.15;0.63;;;23.10;36.90;;;;;;4942821;28;20480;-59
2024/01/04 11:49:05;;;;;;;0.55;0.40;;;23.10;36.80;;;;;;4940701;28;20436;-58
2024/01/04 11:51:41;;;;;;;1.02;0.55;;;23.20;36.80;;;;;;4928982;29;20078;-58
2024/01/04 11:54:11;;;;;;;0.65;0.40;;;23.20;36.80;;;;;;4944977;28;20062;-56
2024/01/04 11:56:38;;;;;;;0.82;0.50;;;23.20;36.70;;;;;;4949833;28;20059;-54
2024/01/04 11:59:10;;;;;;;0.80;0.55;;;23.20;36.60;;;;;;4935141;29;20047;-56
2024/01/04 12:01:41;;;;;;;1.38;0.80;;;23.20;36.70;;;;;;4931874;29;20393;-55
2024/01/04 12:04:11;;;;;;;0.55;0.50;;;23.30;36.70;;;;;;4935925;28;20066;-55
2024/01/04 12:06:39;;;;;;;1.33;0.63;;;23.30;36.60;;;;;;4945181;29;20059;-56
2024/01/04 12:09:07;;;;;;;1.27;0.80;;;23.30;36.60;;;;;;4942471;29;20053;-57
2024/01/04 12:11:36;;;;;;;1.90;0.90;;;23.30;36.60;;;;;;4949419;28;20071;-57
2024/01/04 12:14:05;;;;;;;2.88;1.23;;;23.30;36.60;;;;;;4939335;29;20080;-56
2024/01/04 12:16:35;;;;;;;1.73;0.82;;;23.30;36.50;;;;;;4936005;29;20052;-57
2024/01/04 12:19:04;;;;;;;1.48;0.80;;;23.30;36.50;;;;;;4944827;28;20051;-57
2024/01/04 12:21:32;;;;;;;2.97;1.20;;;23.30;36.50;;;;;;4949502;28;20082;-55
2024/01/04 12:23:59;;;;;;;1.70;0.98;;;23.30;36.50;;;;;;4949121;28;20512;-57
2024/01/04 12:26:28;;;;;;;1.42;0.60;;;23.30;36.40;;;;;;4947542;28;20059;-57
2024/01/04 12:28:56;;;;;;;4.60;1.10;;;23.20;36.50;;;;;;4945756;29;20051;-55
2024/01/04 12:31:24;;;;;;;2.63;0.82;;;23.20;36.60;;;;;;4949554;28;20102;-54
2024/01/04 12:33:54;;;;;;;11.32;1.27;;;23.20;36.60;;;;;;4943906;28;20508;-57
2024/01/04 12:36:27;;;;;;;8.88;1.58;;;23.20;36.60;;;;;;4950077;29;20062;-56
2024/01/04 12:39:06;;;;;;;4.13;1.23;;;23.20;36.60;;;;;;4950879;28;20055;-57
2024/01/04 12:41:34;;;;;;;2.78;1.15;;;23.20;36.50;;;;;;4947477;28;20051;-53
2024/01/04 12:44:04;;;;;;;3.00;1.15;;;23.20;36.50;;;;;;4954696;28;20055;-57
2024/01/04 12:46:31;;;;;;;6.80;1.27;;;23.20;36.50;;;;;;4952855;28;20055;-57
2024/01/04 12:49:06;;;;;;;4.38;1.05;;;23.10;36.40;;;;;;4951956;28;20062;-56
2024/01/04 12:51:38;;;;;;;5.72;1.08;;;23.10;36.40;;;;;;4954082;28;20081;-57
2024/01/04 12:54:05;;;;;;;3.42;1.00;;;23.10;36.40;;;;;;4952378;28;20416;-57